Detalii statie GENERAL AGRO [00001CEA]

Toti senzorii

Date Temperatura solului [C]Precipitatii [mm]Voltaj baterie [mV]HC Air temperature [C]HC Relative humidity [%]Punctul de roua [C]
medieminmaxsumaultimamedieminmaxmediemediemin
2018-12-09 15:00:00 2.6 2.5 2.7 0.2 6668 2.58 2.52 2.69 0 0 0
2018-12-09 15:30:00 2.6 2.6 2.7 0.2 6660 2.53 2.51 2.58 0 0 0
2018-12-09 16:00:00 2.6 2.6 2.7 0 6668 2.38 2.35 2.45 0 0 0
2018-12-09 16:30:00 2.6 2.6 2.7 0 6668 2.27 2.2 2.34 0 0 0
2018-12-09 17:00:00 2.6 2.6 2.7 0 6668 2.06 2 2.19 0 0 0
2018-12-09 17:30:00 2.6 2.6 2.7 0 6660 2 1.95 2.05 0 0 0
2018-12-09 18:00:00 2.6 2.6 2.7 0 6660 2.02 1.96 2.08 0 0 0
2018-12-09 18:30:00 2.6 2.6 2.7 0 6668 1.86 1.71 2 0 0 0
2018-12-09 19:00:00 2.6 2.5 2.7 0 6668 1.73 1.67 1.81 0 0 0
2018-12-09 19:30:00 2.6 2.5 2.7 0 6660 1.83 1.79 1.88 0 0 0
2018-12-09 20:00:00 2.5 2.5 2.7 0 6668 2.04 1.94 2.2 0 0 0
2018-12-09 20:30:00 2.6 2.5 2.7 0 6660 2.09 2.04 2.16 0 0 0
2018-12-09 21:00:00 2.5 2.5 2.7 0 6660 2.12 2.08 2.15 0 0 0
2018-12-09 21:30:00 2.5 2.4 2.7 0 6668 2.02 1.98 2.05 0 0 0
2018-12-09 22:00:00 2.6 2.5 2.7 0 6668 2.05 2.03 2.11 0 0 0
2018-12-09 22:30:00 2.6 2.5 2.7 0 6660 1.92 1.89 1.95 0 0 0
2018-12-09 23:00:00 2.6 2.6 2.7 0 6660 1.94 1.85 2.01 0 0 0
2018-12-09 23:30:00 2.6 2.5 2.7 0 6660 1.96 1.92 2 0 0 0
2018-12-10 00:00:00 2.5 2.5 2.6 0 6660 1.94 1.88 2 0 0 0
2018-12-10 00:30:00 2.6 2.6 2.7 0 6660 1.77 1.66 1.89 0 0 0
2018-12-10 01:00:00 2.6 2.5 2.7 0 6668 1.53 1.45 1.64 0 0 0
2018-12-10 01:30:00 2.6 2.6 2.7 0 6660 1.43 1.36 1.48 0 0 0
2018-12-10 02:00:00 2.6 2.6 2.6 0 6668 1.26 1.19 1.34 0 0 0
2018-12-10 02:30:00 2.6 2.5 2.7 0 6660 1.13 1.12 1.16 0 0 0
2018-12-10 03:00:00 2.6 2.5 2.7 0 6668 1.06 0.97 1.13 0 0 0
2018-12-10 03:30:00 2.6 2.6 2.7 0 6660 0.92 0.87 0.97 0 0 0
2018-12-10 04:00:00 2.5 2.4 2.7 0 6668 0.76 0.71 0.86 0 0 0
2018-12-10 04:30:00 2.6 2.6 2.6 0 6650 0.67 0.61 0.74 0 0 0
2018-12-10 05:00:00 2.6 2.5 2.7 0 6660 0.62 0.55 0.66 0 0 0
2018-12-10 05:30:00 2.6 2.6 2.7 0 6650 0.51 0.41 0.59 0 0 0
2018-12-10 06:00:00 2.5 2.4 2.6 0 6668 0.41 0.38 0.47 0 0 0
2018-12-10 06:30:00 2.5 2.4 2.6 0 6660 0.39 0.37 0.44 0 0 0
2018-12-10 07:00:00 2.5 2.5 2.6 0 6660 0.29 0.26 0.37 0 0 0
2018-12-10 07:30:00 2.4 2.4 2.5 0 6660 0.14 0.04 0.23 0 0 0
2018-12-10 08:00:00 2.4 2.4 2.5 0 6660 -0.06 -0.15 0.06 0 0 0
2018-12-10 08:30:00 2.5 2.5 2.6 0 6660 -0.23 -0.34 -0.13 0 0 0
2018-12-10 09:00:00 2.4 2.4 2.5 0.2 6660 -0.34 -0.43 -0.25 0 0 0
2018-12-10 09:30:00 2.5 2.4 2.6 0 6660 -0.21 -0.27 -0.14 0 0 0
2018-12-10 10:00:00 2.4 2.3 2.5 0 6668 -0.27 -0.38 -0.16 0 0 0
2018-12-10 10:30:00 2.4 2.4 2.5 0 6668 -0.19 -0.41 0 0 0 0
2018-12-10 11:00:00 2.5 2.5 2.5 0 6678 0 -0.11 0.09 0 0 0
2018-12-10 11:30:00 2.5 2.5 2.6 0 6668 0.17 0.03 0.31 0 0 0
2018-12-10 12:00:00 2.6 2.5 2.7 0 6688 0.27 0.17 0.33 0 0 0
2018-12-10 12:30:00 2.6 2.6 2.7 0 6668 0.31 0.24 0.42 0 0 0
2018-12-10 13:00:00 2.6 2.6 2.8 0 6678 0.49 0.29 0.7 0 0 0
2018-12-10 13:30:00 2.7 2.7 2.8 0 6668 0.6 0.45 0.78 0 0 0
2018-12-10 14:00:00 2.8 2.7 2.9 0 6668 0.78 0.62 0.95 0 0 0
2018-12-10 14:30:00 2.8 2.8 2.9 0 6660 0.84 0.73 1 0 0 0